KMEM

Memphis International Airport

Memphis, Tennessee, USA
METAR KMEM 170454Z 13004KT 10SM BKN110 08/M01 A3017 RMK AO2 SLP217 T00831006 $
Observed Flight Rules
Dec-17 @ 04:54 UTC (an hour ago) Visual Flight Rules
Wind Visibility Clouds
130° at 4 knots 10 miles
  • Broken at 11,000' AGL
Temperatures Readings
Current 8°C / 46°F
Dewpoint -1°C / 30°F
Humidity 53%
Altimeter 30.17" Hg
Pressure 1021.7 hPa
Elevation 86
METAR KMEM 170454Z 13004KT 10SM BKN110 08/M01 A3017 RMK AO2 SLP217 T00831006 $
Observed Flight Rules
Dec-17 @ 04:54 UTC
(an hour ago)
VFR
Wind Visibility
130° at 4 knots 10 miles
Clouds
  • Broken at 11,000' AGL
Temperature Dewpoint
8°C / 46°F -1°C / 30°F
Humidity Altimeter Pressure
53% 30.17" Hg 1021.7 hPa